sensor_id;sensor_type;location;lat;lon;timestamp;pressure;altitude;pressure_sealevel;temperature;humidity
21869;BME280;11099;41.564;23.296;2022-09-03T00:05:09;97413.81;;;20.74;100.00
21869;BME280;11099;41.564;23.296;2022-09-03T00:07:42;97433.22;;;20.84;100.00
21869;BME280;11099;41.564;23.296;2022-09-03T00:10:15;97435.84;;;20.73;100.00
21869;BME280;11099;41.564;23.296;2022-09-03T00:12:44;97367.03;;;20.26;100.00
21869;BME280;11099;41.564;23.296;2022-09-03T00:15:17;97436.28;;;20.78;100.00
21869;BME280;11099;41.564;23.296;2022-09-03T00:18:18;97401.00;;;20.27;100.00
21869;BME280;11099;41.564;23.296;2022-09-03T00:20:49;97439.78;;;20.86;100.00
21869;BME280;11099;41.564;23.296;2022-09-03T00:23:25;97402.56;;;20.69;100.00
21869;BME280;11099;41.564;23.296;2022-09-03T00:33:47;97336.41;;;20.59;100.00
21869;BME280;11099;41.564;23.296;2022-09-03T00:36:20;97427.94;;;21.01;100.00
21869;BME280;11099;41.564;23.296;2022-09-03T00:38:48;97362.69;;;20.59;100.00
21869;BME280;11099;41.564;23.296;2022-09-03T00:51:34;97437.59;;;20.99;100.00
21869;BME280;11099;41.564;23.296;2022-09-03T00:54:15;97438.06;;;21.12;100.00
21869;BME280;11099;41.564;23.296;2022-09-03T01:02:19;97454.09;;;20.87;100.00
21869;BME280;11099;41.564;23.296;2022-09-03T01:05:06;97382.97;;;20.38;100.00
21869;BME280;11099;41.564;23.296;2022-09-03T01:07:43;97357.91;;;20.00;100.00
21869;BME280;11099;41.564;23.296;2022-09-03T01:10:29;97443.00;;;20.51;100.00
21869;BME280;11099;41.564;23.296;2022-09-03T01:13:01;97446.81;;;20.46;100.00
21869;BME280;11099;41.564;23.296;2022-09-03T01:21:03;97439.16;;;20.18;100.00
21869;BME280;11099;41.564;23.296;2022-09-03T01:26:32;97439.13;;;20.15;100.00
21869;BME280;11099;41.564;23.296;2022-09-03T01:29:24;97444.31;;;20.31;100.00
21869;BME280;11099;41.564;23.296;2022-09-03T01:32:08;97385.66;;;19.97;100.00
21869;BME280;11099;41.564;23.296;2022-09-03T01:37:35;97413.72;;;20.23;100.00
21869;BME280;11099;41.564;23.296;2022-09-03T01:40:14;97450.69;;;20.49;100.00
21869;BME280;11099;41.564;23.296;2022-09-03T01:45:46;97459.72;;;20.64;100.00
21869;BME280;11099;41.564;23.296;2022-09-03T01:51:24;97454.97;;;20.53;100.00
21869;BME280;11099;41.564;23.296;2022-09-03T02:04:56;97417.69;;;19.95;100.00
21869;BME280;11099;41.564;23.296;2022-09-03T02:07:26;97399.88;;;19.91;100.00
21869;BME280;11099;41.564;23.296;2022-09-03T02:09:58;97478.28;;;20.28;100.00
21869;BME280;11099;41.564;23.296;2022-09-03T02:12:28;97471.72;;;20.29;100.00
21869;BME280;11099;41.564;23.296;2022-09-03T02:14:58;97446.78;;;20.09;100.00
21869;BME280;11099;41.564;23.296;2022-09-03T02:17:24;97318.41;;;19.18;100.00
21869;BME280;11099;41.564;23.296;2022-09-03T02:19:50;97359.41;;;19.31;100.00
21869;BME280;11099;41.564;23.296;2022-09-03T02:22:16;97470.63;;;20.00;100.00
21869;BME280;11099;41.564;23.296;2022-09-03T02:24:41;97366.03;;;19.37;100.00
21869;BME280;11099;41.564;23.296;2022-09-03T02:27:08;97329.59;;;19.20;100.00
21869;BME280;11099;41.564;23.296;2022-09-03T02:29:33;97396.00;;;19.58;100.00
21869;BME280;11099;41.564;23.296;2022-09-03T02:31:59;97419.28;;;20.00;100.00
21869;BME280;11099;41.564;23.296;2022-09-03T02:34:25;97472.28;;;20.45;100.00
21869;BME280;11099;41.564;23.296;2022-09-03T02:36:50;97438.66;;;20.09;100.00
21869;BME280;11099;41.564;23.296;2022-09-03T02:39:16;97366.25;;;19.85;100.00
21869;BME280;11099;41.564;23.296;2022-09-03T02:41:42;97424.50;;;20.19;100.00
21869;BME280;11099;41.564;23.296;2022-09-03T02:44:23;97400.38;;;20.00;100.00
21869;BME280;11099;41.564;23.296;2022-09-03T02:47:00;97463.81;;;20.47;100.00
21869;BME280;11099;41.564;23.296;2022-09-03T02:49:28;97419.75;;;20.06;100.00
21869;BME280;11099;41.564;23.296;2022-09-03T02:52:02;97467.28;;;20.47;100.00
21869;BME280;11099;41.564;23.296;2022-09-03T02:54:34;97462.31;;;20.53;100.00
21869;BME280;11099;41.564;23.296;2022-09-03T02:57:05;97471.28;;;20.27;100.00
21869;BME280;11099;41.564;23.296;2022-09-03T02:59:31;97476.06;;;20.04;100.00
21869;BME280;11099;41.564;23.296;2022-09-03T03:01:57;97345.63;;;18.56;100.00
21869;BME280;11099;41.564;23.296;2022-09-03T03:04:22;97375.06;;;18.91;100.00
21869;BME280;11099;41.564;23.296;2022-09-03T03:06:48;97474.63;;;19.80;100.00
21869;BME280;11099;41.564;23.296;2022-09-03T03:09:16;97441.19;;;19.61;100.00
21869;BME280;11099;41.564;23.296;2022-09-03T03:11:41;97407.16;;;19.27;100.00
21869;BME280;11099;41.564;23.296;2022-09-03T03:14:07;97497.19;;;19.94;100.00
21869;BME280;11099;41.564;23.296;2022-09-03T03:16:33;97436.28;;;19.14;100.00
21869;BME280;11099;41.564;23.296;2022-09-03T03:18:58;97416.94;;;19.08;100.00
21869;BME280;11099;41.564;23.296;2022-09-03T03:21:24;97406.97;;;19.12;100.00
21869;BME280;11099;41.564;23.296;2022-09-03T03:23:50;97407.69;;;19.09;100.00
21869;BME280;11099;41.564;23.296;2022-09-03T03:26:17;97478.59;;;19.89;100.00
21869;BME280;11099;41.564;23.296;2022-09-03T03:28:44;97476.03;;;19.70;100.00
21869;BME280;11099;41.564;23.296;2022-09-03T03:31:16;97476.50;;;19.76;100.00
21869;BME280;11099;41.564;23.296;2022-09-03T03:33:42;97430.28;;;19.24;100.00
21869;BME280;11099;41.564;23.296;2022-09-03T03:36:13;97466.97;;;19.29;100.00
21869;BME280;11099;41.564;23.296;2022-09-03T03:38:39;97480.25;;;19.41;100.00
21869;BME280;11099;41.564;23.296;2022-09-03T03:41:14;97461.88;;;19.24;100.00
21869;BME280;11099;41.564;23.296;2022-09-03T03:43:40;97490.38;;;19.47;100.00
21869;BME280;11099;41.564;23.296;2022-09-03T03:46:06;97371.69;;;18.72;100.00
21869;BME280;11099;41.564;23.296;2022-09-03T03:48:32;97483.34;;;19.43;100.00
21869;BME280;11099;41.564;23.296;2022-09-03T03:51:05;97465.66;;;19.45;100.00
21869;BME280;11099;41.564;23.296;2022-09-03T03:53:32;97439.53;;;19.00;100.00
21869;BME280;11099;41.564;23.296;2022-09-03T03:56:00;97499.16;;;19.67;100.00
21869;BME280;11099;41.564;23.296;2022-09-03T03:58:35;97433.59;;;19.14;100.00
21869;BME280;11099;41.564;23.296;2022-09-03T04:01:06;97463.28;;;19.40;100.00
21869;BME280;11099;41.564;23.296;2022-09-03T04:03:33;97490.63;;;19.65;100.00
21869;BME280;11099;41.564;23.296;2022-09-03T04:05:59;97497.63;;;19.70;100.00
21869;BME280;11099;41.564;23.296;2022-09-03T04:08:26;97490.16;;;19.60;100.00
21869;BME280;11099;41.564;23.296;2022-09-03T04:10:53;97375.72;;;19.11;100.00
21869;BME280;11099;41.564;23.296;2022-09-03T04:13:19;97389.91;;;19.05;100.00
21869;BME280;11099;41.564;23.296;2022-09-03T04:15:44;97479.69;;;19.85;100.00
21869;BME280;11099;41.564;23.296;2022-09-03T04:18:11;97397.66;;;19.36;100.00
21869;BME280;11099;41.564;23.296;2022-09-03T04:20:36;97481.78;;;19.98;100.00
21869;BME280;11099;41.564;23.296;2022-09-03T04:23:03;97422.19;;;19.54;100.00
21869;BME280;11099;41.564;23.296;2022-09-03T04:25:28;97432.25;;;19.57;100.00
21869;BME280;11099;41.564;23.296;2022-09-03T04:27:54;97414.22;;;19.35;100.00
21869;BME280;11099;41.564;23.296;2022-09-03T04:30:19;97486.09;;;20.03;100.00
21869;BME280;11099;41.564;23.296;2022-09-03T04:32:48;97457.97;;;20.08;100.00
21869;BME280;11099;41.564;23.296;2022-09-03T04:35:27;97519.84;;;20.91;100.00
21869;BME280;11099;41.564;23.296;2022-09-03T04:37:54;97441.88;;;20.59;100.00
21869;BME280;11099;41.564;23.296;2022-09-03T04:40:20;97498.44;;;21.19;100.00
21869;BME280;11099;41.564;23.296;2022-09-03T04:42:45;97432.53;;;20.97;100.00
21869;BME280;11099;41.564;23.296;2022-09-03T04:45:11;97553.16;;;21.39;100.00
21869;BME280;11099;41.564;23.296;2022-09-03T04:47:40;97464.09;;;20.42;100.00
21869;BME280;11099;41.564;23.296;2022-09-03T04:50:05;97519.25;;;21.12;100.00
21869;BME280;11099;41.564;23.296;2022-09-03T04:52:31;97553.88;;;21.36;100.00
21869;BME280;11099;41.564;23.296;2022-09-03T04:54:57;97436.59;;;21.25;100.00
21869;BME280;11099;41.564;23.296;2022-09-03T04:57:23;97489.31;;;22.11;100.00
21869;BME280;11099;41.564;23.296;2022-09-03T04:59:48;97569.59;;;22.37;100.00
21869;BME280;11099;41.564;23.296;2022-09-03T05:02:14;97568.50;;;22.59;100.00
21869;BME280;11099;41.564;23.296;2022-09-03T05:04:40;97565.88;;;22.95;100.00
21869;BME280;11099;41.564;23.296;2022-09-03T05:07:06;97521.69;;;22.91;100.00
21869;BME280;11099;41.564;23.296;2022-09-03T05:09:32;97578.72;;;23.66;100.00
21869;BME280;11099;41.564;23.296;2022-09-03T05:11:57;97584.56;;;23.47;100.00
21869;BME280;11099;41.564;23.296;2022-09-03T05:14:23;97502.97;;;22.40;100.00
21869;BME280;11099;41.564;23.296;2022-09-03T05:16:48;97558.91;;;22.94;100.00
21869;BME280;11099;41.564;23.296;2022-09-03T05:19:14;97484.81;;;22.83;100.00
21869;BME280;11099;41.564;23.296;2022-09-03T05:21:40;97595.41;;;23.61;100.00
21869;BME280;11099;41.564;23.296;2022-09-03T05:24:07;97481.34;;;23.11;100.00
21869;BME280;11099;41.564;23.296;2022-09-03T05:26:36;97581.78;;;23.00;100.00
21869;BME280;11099;41.564;23.296;2022-09-03T05:29:03;97501.50;;;23.17;100.00
21869;BME280;11099;41.564;23.296;2022-09-03T05:31:33;97583.50;;;24.67;92.50
21869;BME280;11099;41.564;23.296;2022-09-03T05:34:02;97534.25;;;25.07;88.25
21869;BME280;11099;41.564;23.296;2022-09-03T05:36:31;97582.03;;;25.63;85.71
21869;BME280;11099;41.564;23.296;2022-09-03T05:38:57;97577.81;;;26.00;84.11
21869;BME280;11099;41.564;23.296;2022-09-03T05:41:24;97487.81;;;25.59;76.76
21869;BME280;11099;41.564;23.296;2022-09-03T05:43:51;97573.97;;;24.93;80.73
21869;BME280;11099;41.564;23.296;2022-09-03T05:46:24;97551.00;;;24.35;82.67
21869;BME280;11099;41.564;23.296;2022-09-03T05:49:07;97500.16;;;24.81;79.95
21869;BME280;11099;41.564;23.296;2022-09-03T05:51:35;97578.13;;;25.64;77.44
21869;BME280;11099;41.564;23.296;2022-09-03T05:54:01;97550.94;;;25.09;79.58
21869;BME280;11099;41.564;23.296;2022-09-03T05:56:28;97426.09;;;23.78;80.52
21869;BME280;11099;41.564;23.296;2022-09-03T05:58:57;97592.09;;;24.55;83.35
21869;BME280;11099;41.564;23.296;2022-09-03T06:01:27;97576.38;;;24.84;80.36
21869;BME280;11099;41.564;23.296;2022-09-03T06:03:57;97598.84;;;25.06;80.47
21869;BME280;11099;41.564;23.296;2022-09-03T06:06:24;97455.19;;;23.96;82.56
21869;BME280;11099;41.564;23.296;2022-09-03T06:08:55;97569.53;;;24.55;83.76
21869;BME280;11099;41.564;23.296;2022-09-03T06:11:23;97594.44;;;24.53;83.71
21869;BME280;11099;41.564;23.296;2022-09-03T06:13:55;97497.06;;;24.12;83.21
21869;BME280;11099;41.564;23.296;2022-09-03T06:16:22;97598.53;;;24.83;82.50
21869;BME280;11099;41.564;23.296;2022-09-03T06:18:47;97495.78;;;24.28;82.71
21869;BME280;11099;41.564;23.296;2022-09-03T06:21:13;97602.91;;;24.66;83.42
21869;BME280;11099;41.564;23.296;2022-09-03T06:23:40;97599.16;;;24.38;84.07
21869;BME280;11099;41.564;23.296;2022-09-03T06:28:33;97490.25;;;22.86;87.01
21869;BME280;11099;41.564;23.296;2022-09-03T06:31:01;97584.88;;;23.95;86.01
21869;BME280;11099;41.564;23.296;2022-09-03T06:33:28;97507.72;;;22.96;87.97
21869;BME280;11099;41.564;23.296;2022-09-03T06:35:56;97593.84;;;23.46;88.81
21869;BME280;11099;41.564;23.296;2022-09-03T06:38:26;97596.97;;;23.69;87.77
21869;BME280;11099;41.564;23.296;2022-09-03T06:40:56;97480.44;;;22.14;91.72
21869;BME280;11099;41.564;23.296;2022-09-03T06:43:22;97567.34;;;22.60;94.91
21869;BME280;11099;41.564;23.296;2022-09-03T06:45:59;97512.88;;;22.07;95.94
21869;BME280;11099;41.564;23.296;2022-09-03T06:48:26;97577.41;;;22.56;94.02
21869;BME280;11099;41.564;23.296;2022-09-03T06:51:15;97600.81;;;23.00;93.43
21869;BME280;11099;41.564;23.296;2022-09-03T06:53:44;97598.06;;;22.90;93.98
21869;BME280;11099;41.564;23.296;2022-09-03T06:56:12;97596.53;;;22.92;93.95
21869;BME280;11099;41.564;23.296;2022-09-03T06:58:42;97600.84;;;23.50;91.27
21869;BME280;11099;41.564;23.296;2022-09-03T07:01:14;97474.75;;;23.05;87.73
21869;BME280;11099;41.564;23.296;2022-09-03T07:03:41;97606.94;;;24.26;86.95
21869;BME280;11099;41.564;23.296;2022-09-03T07:06:13;97524.34;;;23.77;84.45
21869;BME280;11099;41.564;23.296;2022-09-03T07:08:42;97603.91;;;23.99;87.99
21869;BME280;11099;41.564;23.296;2022-09-03T07:11:12;97604.91;;;24.55;84.63
21869;BME280;11099;41.564;23.296;2022-09-03T07:13:43;97577.03;;;24.29;84.80
21869;BME280;11099;41.564;23.296;2022-09-03T07:16:12;97600.78;;;24.98;82.45
21869;BME280;11099;41.564;23.296;2022-09-03T07:18:38;97563.72;;;25.19;80.85
21869;BME280;11099;41.564;23.296;2022-09-03T07:21:09;97554.28;;;25.31;78.89
21869;BME280;11099;41.564;23.296;2022-09-03T07:23:36;97609.16;;;25.81;77.92
21869;BME280;11099;41.564;23.296;2022-09-03T07:26:05;97603.59;;;25.92;76.02
21869;BME280;11099;41.564;23.296;2022-09-03T07:28:31;97612.78;;;26.77;72.64
21869;BME280;11099;41.564;23.296;2022-09-03T07:31:02;97608.50;;;26.45;75.69
21869;BME280;11099;41.564;23.296;2022-09-03T07:33:28;97565.50;;;26.53;73.40
21869;BME280;11099;41.564;23.296;2022-09-03T07:36:00;97581.25;;;26.42;73.68
21869;BME280;11099;41.564;23.296;2022-09-03T07:38:26;97580.25;;;25.87;74.43
21869;BME280;11099;41.564;23.296;2022-09-03T07:41:04;97536.91;;;25.59;75.60
21869;BME280;11099;41.564;23.296;2022-09-03T07:43:42;97606.69;;;25.49;77.57
21869;BME280;11099;41.564;23.296;2022-09-03T07:46:17;97600.25;;;25.77;77.09
21869;BME280;11099;41.564;23.296;2022-09-03T07:48:54;97586.84;;;25.93;76.08
21869;BME280;11099;41.564;23.296;2022-09-03T07:51:22;97609.13;;;25.85;76.37
21869;BME280;11099;41.564;23.296;2022-09-03T07:53:52;97589.28;;;25.81;75.63
21869;BME280;11099;41.564;23.296;2022-09-03T07:56:18;97614.75;;;26.42;72.30
21869;BME280;11099;41.564;23.296;2022-09-03T07:58:44;97512.75;;;25.61;70.32
21869;BME280;11099;41.564;23.296;2022-09-03T08:01:11;97618.13;;;26.19;72.69
21869;BME280;11099;41.564;23.296;2022-09-03T08:03:41;97622.56;;;26.02;73.03
21869;BME280;11099;41.564;23.296;2022-09-03T08:06:08;97533.56;;;25.82;70.69
21869;BME280;11099;41.564;23.296;2022-09-03T08:08:34;97615.06;;;26.14;71.87
21869;BME280;11099;41.564;23.296;2022-09-03T08:11:09;97600.97;;;26.19;70.70
21869;BME280;11099;41.564;23.296;2022-09-03T08:13:45;97613.59;;;26.06;71.80
21869;BME280;11099;41.564;23.296;2022-09-03T08:16:15;97605.97;;;25.90;72.39
21869;BME280;11099;41.564;23.296;2022-09-03T08:18:41;97612.88;;;26.36;71.61
21869;BME280;11099;41.564;23.296;2022-09-03T08:21:09;97571.66;;;26.26;69.78
21869;BME280;11099;41.564;23.296;2022-09-03T08:23:43;97588.94;;;26.50;69.00
21869;BME280;11099;41.564;23.296;2022-09-03T08:26:10;97527.88;;;26.03;69.26
21869;BME280;11099;41.564;23.296;2022-09-03T08:28:37;97610.31;;;26.21;70.01
21869;BME280;11099;41.564;23.296;2022-09-03T08:31:22;97530.28;;;25.97;69.37
21869;BME280;11099;41.564;23.296;2022-09-03T08:33:51;97563.28;;;26.10;69.88
21869;BME280;11099;41.564;23.296;2022-09-03T08:36:18;97604.69;;;25.57;72.69
21869;BME280;11099;41.564;23.296;2022-09-03T08:38:45;97524.81;;;25.18;71.78
21869;BME280;11099;41.564;23.296;2022-09-03T08:41:42;97589.25;;;25.88;71.59
21869;BME280;11099;41.564;23.296;2022-09-03T08:50:03;97605.09;;;27.26;67.29
21869;BME280;11099;41.564;23.296;2022-09-03T08:52:47;97543.94;;;27.16;65.90
21869;BME280;11099;41.564;23.296;2022-09-03T08:58:13;97571.13;;;27.47;64.93
21869;BME280;11099;41.564;23.296;2022-09-03T09:03:33;97609.56;;;27.87;64.58
21869;BME280;11099;41.564;23.296;2022-09-03T09:11:45;97608.19;;;27.98;65.15
21869;BME280;11099;41.564;23.296;2022-09-03T09:22:51;97538.03;;;28.48;64.20
21869;BME280;11099;41.564;23.296;2022-09-03T09:25:21;97580.50;;;27.49;68.20
21869;BME280;11099;41.564;23.296;2022-09-03T09:30:20;97587.50;;;27.50;66.58
21869;BME280;11099;41.564;23.296;2022-09-03T09:32:45;97580.78;;;27.31;67.58
21869;BME280;11099;41.564;23.296;2022-09-03T09:35:13;97525.28;;;27.35;65.04
21869;BME280;11099;41.564;23.296;2022-09-03T09:37:56;97572.63;;;27.98;61.84
21869;BME280;11099;41.564;23.296;2022-09-03T09:43:04;97580.63;;;28.49;60.43
21869;BME280;11099;41.564;23.296;2022-09-03T09:45:30;97505.09;;;28.12;60.80
21869;BME280;11099;41.564;23.296;2022-09-03T09:47:58;97572.28;;;28.72;60.80
21869;BME280;11099;41.564;23.296;2022-09-03T09:50:25;97558.13;;;28.41;61.06
21869;BME280;11099;41.564;23.296;2022-09-03T09:53:02;97570.88;;;28.08;63.87
21869;BME280;11099;41.564;23.296;2022-09-03T09:55:32;97596.56;;;28.14;62.42
21869;BME280;11099;41.564;23.296;2022-09-03T09:58:07;97601.09;;;28.01;64.64
21869;BME280;11099;41.564;23.296;2022-09-03T10:00:35;97591.38;;;27.53;65.86
21869;BME280;11099;41.564;23.296;2022-09-03T10:03:08;97600.94;;;27.65;65.05
21869;BME280;11099;41.564;23.296;2022-09-03T10:05:35;97565.16;;;27.32;64.95
21869;BME280;11099;41.564;23.296;2022-09-03T10:08:18;97550.50;;;26.92;65.90
21869;BME280;11099;41.564;23.296;2022-09-03T10:10:47;97591.25;;;27.60;63.21
21869;BME280;11099;41.564;23.296;2022-09-03T10:13:18;97605.78;;;28.00;60.70
21869;BME280;11099;41.564;23.296;2022-09-03T10:16:03;97595.41;;;28.12;57.32
21869;BME280;11099;41.564;23.296;2022-09-03T10:21:11;97544.34;;;28.25;56.70
21869;BME280;11099;41.564;23.296;2022-09-03T10:26:29;97544.25;;;28.48;55.38
21869;BME280;11099;41.564;23.296;2022-09-03T10:29:00;97565.44;;;29.17;55.29
21869;BME280;11099;41.564;23.296;2022-09-03T10:34:33;97571.19;;;29.55;52.45
21869;BME280;11099;41.564;23.296;2022-09-03T10:45:22;97555.16;;;29.21;52.10
21869;BME280;11099;41.564;23.296;2022-09-03T10:48:15;97567.06;;;29.30;53.74
21869;BME280;11099;41.564;23.296;2022-09-03T10:50:52;97494.84;;;29.21;51.61
21869;BME280;11099;41.564;23.296;2022-09-03T10:53:27;97548.94;;;29.82;50.96
21869;BME280;11099;41.564;23.296;2022-09-03T11:01:25;97517.78;;;29.43;52.99
21869;BME280;11099;41.564;23.296;2022-09-03T11:06:39;97547.88;;;29.47;53.16
21869;BME280;11099;41.564;23.296;2022-09-03T11:09:15;97548.66;;;30.05;50.48
21869;BME280;11099;41.564;23.296;2022-09-03T11:11:58;97555.56;;;29.97;50.84
21869;BME280;11099;41.564;23.296;2022-09-03T11:14:39;97556.00;;;29.50;52.83
21869;BME280;11099;41.564;23.296;2022-09-03T11:17:14;97569.03;;;29.46;53.11
21869;BME280;11099;41.564;23.296;2022-09-03T11:19:52;97555.38;;;29.75;51.18
21869;BME280;11099;41.564;23.296;2022-09-03T11:22:21;97499.47;;;29.56;50.42
21869;BME280;11099;41.564;23.296;2022-09-03T11:24:58;97556.75;;;29.83;50.07
21869;BME280;11099;41.564;23.296;2022-09-03T11:27:30;97558.44;;;29.77;52.67
21869;BME280;11099;41.564;23.296;2022-09-03T11:33:11;97557.25;;;30.49;48.50
21869;BME280;11099;41.564;23.296;2022-09-03T11:38:05;97538.03;;;30.07;49.85
21869;BME280;11099;41.564;23.296;2022-09-03T11:40:37;97486.63;;;29.66;49.26
21869;BME280;11099;41.564;23.296;2022-09-03T11:43:24;97495.09;;;29.26;50.02
21869;BME280;11099;41.564;23.296;2022-09-03T11:46:10;97545.41;;;29.81;49.86
21869;BME280;11099;41.564;23.296;2022-09-03T11:48:44;97473.47;;;29.45;50.23
21869;BME280;11099;41.564;23.296;2022-09-03T11:56:48;97506.09;;;30.01;49.58
21869;BME280;11099;41.564;23.296;2022-09-03T11:59:32;97518.13;;;30.20;49.21
21869;BME280;11099;41.564;23.296;2022-09-03T12:02:05;97489.72;;;30.10;49.45
21869;BME280;11099;41.564;23.296;2022-09-03T12:04:42;97526.28;;;30.36;50.00
21869;BME280;11099;41.564;23.296;2022-09-03T12:07:40;97522.31;;;29.50;51.14
21869;BME280;11099;41.564;23.296;2022-09-03T12:10:33;97526.13;;;29.23;52.80
21869;BME280;11099;41.564;23.296;2022-09-03T12:13:15;97475.88;;;29.59;51.14
21869;BME280;11099;41.564;23.296;2022-09-03T12:15:53;97527.38;;;29.97;50.85
21869;BME280;11099;41.564;23.296;2022-09-03T12:18:30;97436.03;;;29.96;49.23
21869;BME280;11099;41.564;23.296;2022-09-03T12:23:30;97507.38;;;30.63;49.32
21869;BME280;11099;41.564;23.296;2022-09-03T12:26:18;97507.09;;;30.07;49.49
21869;BME280;11099;41.564;23.296;2022-09-03T12:28:50;97517.16;;;29.97;51.69
21869;BME280;11099;41.564;23.296;2022-09-03T12:31:17;97507.50;;;30.47;49.82
21869;BME280;11099;41.564;23.296;2022-09-03T12:34:01;97502.66;;;30.51;49.57
21869;BME280;11099;41.564;23.296;2022-09-03T12:36:48;97501.88;;;30.38;50.11
21869;BME280;11099;41.564;23.296;2022-09-03T12:39:25;97504.28;;;30.23;50.33
21869;BME280;11099;41.564;23.296;2022-09-03T12:44:28;97436.19;;;29.76;49.58
21869;BME280;11099;41.564;23.296;2022-09-03T12:47:09;97491.13;;;29.89;50.71
21869;BME280;11099;41.564;23.296;2022-09-03T12:49:37;97497.56;;;30.11;49.60
21869;BME280;11099;41.564;23.296;2022-09-03T12:57:30;97490.34;;;30.43;48.29
21869;BME280;11099;41.564;23.296;2022-09-03T13:00:03;97437.13;;;29.99;48.42
21869;BME280;11099;41.564;23.296;2022-09-03T13:02:50;97468.44;;;30.01;48.92
21869;BME280;11099;41.564;23.296;2022-09-03T13:08:23;97475.50;;;30.15;48.65
21869;BME280;11099;41.564;23.296;2022-09-03T13:10:56;97477.94;;;30.64;47.05
21869;BME280;11099;41.564;23.296;2022-09-03T13:13:25;97366.28;;;29.81;47.77
21869;BME280;11099;41.564;23.296;2022-09-03T13:26:52;97429.88;;;30.05;46.46
21869;BME280;11099;41.564;23.296;2022-09-03T13:29:51;97463.56;;;30.34;48.00
21869;BME280;11099;41.564;23.296;2022-09-03T13:34:53;97469.16;;;30.31;48.62
21869;BME280;11099;41.564;23.296;2022-09-03T13:37:26;97446.56;;;30.10;49.25
21869;BME280;11099;41.564;23.296;2022-09-03T13:39:58;97457.16;;;29.83;50.35
21869;BME280;11099;41.564;23.296;2022-09-03T13:42:55;97440.38;;;29.81;49.73
21869;BME280;11099;41.564;23.296;2022-09-03T13:45:42;97456.81;;;29.68;51.11
21869;BME280;11099;41.564;23.296;2022-09-03T13:48:14;97448.22;;;30.08;51.63
21869;BME280;11099;41.564;23.296;2022-09-03T13:51:08;97428.66;;;29.93;51.17
21869;BME280;11099;41.564;23.296;2022-09-03T14:07:27;97414.72;;;29.87;51.77
21869;BME280;11099;41.564;23.296;2022-09-03T14:10:22;97434.81;;;29.97;49.93
21869;BME280;11099;41.564;23.296;2022-09-03T14:13:18;97425.75;;;29.71;49.98
21869;BME280;11099;41.564;23.296;2022-09-03T14:21:05;97431.06;;;29.91;50.28
21869;BME280;11099;41.564;23.296;2022-09-03T14:26:21;97387.50;;;29.22;51.26
21869;BME280;11099;41.564;23.296;2022-09-03T14:28:58;97407.81;;;29.54;50.33
21869;BME280;11099;41.564;23.296;2022-09-03T14:34:05;97448.16;;;29.82;51.05
21869;BME280;11099;41.564;23.296;2022-09-03T14:36:47;97440.38;;;29.81;51.30
21869;BME280;11099;41.564;23.296;2022-09-03T14:39:28;97449.91;;;29.76;51.86
21869;BME280;11099;41.564;23.296;2022-09-03T14:44:56;97454.94;;;28.87;53.53
21869;BME280;11099;41.564;23.296;2022-09-03T14:53:38;97447.50;;;28.71;54.42
21869;BME280;11099;41.564;23.296;2022-09-03T14:56:24;97400.09;;;28.22;54.90
21869;BME280;11099;41.564;23.296;2022-09-03T15:07:52;97444.50;;;28.66;53.60
21869;BME280;11099;41.564;23.296;2022-09-03T15:13:09;97446.22;;;28.76;52.04
21869;BME280;11099;41.564;23.296;2022-09-03T15:26:54;97464.38;;;28.86;53.85
21869;BME280;11099;41.564;23.296;2022-09-03T15:32:37;97461.66;;;29.02;53.54
21869;BME280;11099;41.564;23.296;2022-09-03T15:35:08;97433.63;;;28.62;53.73
21869;BME280;11099;41.564;23.296;2022-09-03T15:37:46;97403.03;;;28.31;54.15
21869;BME280;11099;41.564;23.296;2022-09-03T15:40:19;97468.88;;;28.60;54.31
21869;BME280;11099;41.564;23.296;2022-09-03T15:42:49;97474.78;;;28.58;54.22
21869;BME280;11099;41.564;23.296;2022-09-03T15:56:27;97478.66;;;28.25;55.36
21869;BME280;11099;41.564;23.296;2022-09-03T15:59:14;97483.09;;;28.19;56.10
21869;BME280;11099;41.564;23.296;2022-09-03T16:02:10;97472.13;;;28.19;56.36
21869;BME280;11099;41.564;23.296;2022-09-03T16:09:52;97479.66;;;27.95;57.45
21869;BME280;11099;41.564;23.296;2022-09-03T16:23:09;97389.91;;;27.07;59.46
21869;BME280;11099;41.564;23.296;2022-09-03T16:25:50;97464.59;;;27.63;59.61
21869;BME280;11099;41.564;23.296;2022-09-03T16:28:58;97485.72;;;27.63;60.11
21869;BME280;11099;41.564;23.296;2022-09-03T16:31:37;97483.13;;;27.55;60.23
21869;BME280;11099;41.564;23.296;2022-09-03T16:42:13;97489.44;;;27.29;62.41
21869;BME280;11099;41.564;23.296;2022-09-03T16:53:02;97504.31;;;26.50;66.80
21869;BME280;11099;41.564;23.296;2022-09-03T16:58:36;97514.31;;;26.61;66.11
21869;BME280;11099;41.564;23.296;2022-09-03T17:07:23;97442.38;;;26.17;65.19
21869;BME280;11099;41.564;23.296;2022-09-03T17:24:12;97534.84;;;26.08;68.20
21869;BME280;11099;41.564;23.296;2022-09-03T17:34:59;97566.94;;;25.96;67.95
21869;BME280;11099;41.564;23.296;2022-09-03T17:43:49;97572.25;;;26.07;67.07
21869;BME280;11099;41.564;23.296;2022-09-03T17:46:36;97572.16;;;25.80;68.21
21869;BME280;11099;41.564;23.296;2022-09-03T17:49:14;97534.28;;;25.48;67.99
21869;BME280;11099;41.564;23.296;2022-09-03T17:51:49;97499.59;;;24.48;71.52
21869;BME280;11099;41.564;23.296;2022-09-03T18:00:01;97547.88;;;25.00;70.87
21869;BME280;11099;41.564;23.296;2022-09-03T18:02:43;97601.91;;;25.05;71.80
21869;BME280;11099;41.564;23.296;2022-09-03T18:05:25;97617.44;;;25.15;71.53
21869;BME280;11099;41.564;23.296;2022-09-03T18:08:05;97621.38;;;25.10;72.04
21869;BME280;11099;41.564;23.296;2022-09-03T18:16:09;97635.16;;;25.44;70.73